Time;durP1;ratioP1;P1;durP2;ratioP2;P2;SDS_P1;SDS_P2;PMS_P1;PMS_P2;Temp;Humidity;BMP_temperature;BMP_pressure;BME280_temperature;BME280_humidity;BME280_pressure;Samples;Min_cycle;Max_cycle;Signal;HPM_P1;HPM_P2
2021/08/30 00:01:12;;;;;;;;;;;12.80;99.90;;;;;;5094266;28;20417;-73
2021/08/30 00:03:38;;;;;;;;;;;12.80;99.90;;;;;;5094386;28;19961;-73
2021/08/30 00:06:04;;;;;;;;;;;12.80;99.90;;;;;;5094005;28;20403;-73
2021/08/30 00:08:29;;;;;;;;;;;12.80;99.90;;;;;;5092046;28;19947;-73
2021/08/30 00:10:55;;;;;;;;;;;12.80;99.90;;;;;;5093990;28;19908;-73
2021/08/30 00:13:20;;;;;;;;;;;12.80;99.90;;;;;;5094283;28;19908;-73
2021/08/30 00:15:46;;;;;;;;;;;12.80;99.90;;;;;;5094591;28;20015;-73
2021/08/30 00:18:11;;;;;;;;;;;12.80;99.90;;;;;;5093616;28;20303;-73
2021/08/30 00:20:37;;;;;;;;;;;12.80;99.90;;;;;;5093985;28;19958;-73
2021/08/30 00:23:02;;;;;;;;;;;12.80;99.90;;;;;;5093922;28;20349;-73
2021/08/30 00:25:28;;;;;;;;;;;12.80;99.90;;;;;;5094109;28;19961;-73
2021/08/30 00:27:53;;;;;;;;;;;12.80;99.90;;;;;;5093609;28;19908;-73
2021/08/30 00:30:19;;;;;;;;;;;12.80;99.90;;;;;;5092340;28;19908;-73
2021/08/30 00:32:44;;;;;;;;;;;12.80;99.90;;;;;;5090555;28;19912;-73
2021/08/30 00:35:10;;;;;;;;;;;12.80;99.90;;;;;;5093844;28;19915;-73
2021/08/30 00:37:35;;;;;;;;;;;12.80;99.90;;;;;;5093318;28;19915;-73
2021/08/30 00:40:02;;;;;;;;;;;12.80;99.90;;;;;;5085321;28;19908;-73
2021/08/30 00:42:28;;;;;;;;;;;12.80;99.90;;;;;;5093443;28;20007;-73
2021/08/30 00:44:53;;;;;;;;;;;12.80;99.90;;;;;;5093666;28;20388;-73
2021/08/30 00:47:20;;;;;;;;;;;12.80;99.90;;;;;;5093022;28;20416;-73
2021/08/30 00:49:45;;;;;;;;;;;12.80;99.90;;;;;;5093503;28;19944;-73
2021/08/30 00:52:11;;;;;;;;;;;12.80;99.90;;;;;;5093260;28;19908;-73
2021/08/30 00:54:36;;;;;;;;;;;12.80;99.90;;;;;;5093513;28;19919;-73
2021/08/30 00:57:02;;;;;;;;;;;12.80;99.90;;;;;;5093046;28;20182;-73
2021/08/30 00:59:28;;;;;;;;;;;12.80;99.90;;;;;;5093090;28;19915;-73
2021/08/30 01:01:53;;;;;;;;;;;12.80;99.90;;;;;;5093124;28;19917;-74
2021/08/30 01:04:19;;;;;;;;;;;12.80;99.90;;;;;;5093166;28;19908;-73
2021/08/30 01:06:45;;;;;;;;;;;12.80;99.90;;;;;;5092702;28;19961;-73
2021/08/30 01:09:23;;;;;;;;;;;12.80;99.90;;;;;;5089861;28;20377;-73
2021/08/30 01:11:53;;;;;;;;;;;12.80;99.90;;;;;;5100335;28;19992;-73
2021/08/30 01:14:19;;;;;;;;;;;12.80;99.90;;;;;;5113303;28;20377;-73
2021/08/30 01:16:46;;;;;;;;;;;12.80;99.90;;;;;;5113009;28;19915;-73
2021/08/30 01:19:16;;;;;;;;;;;12.80;99.90;;;;;;5113376;28;19908;-73
2021/08/30 01:21:43;;;;;;;;;;;12.80;99.90;;;;;;5095019;28;19919;-73
2021/08/30 01:24:13;;;;;;;;;;;12.80;99.90;;;;;;5105234;28;19930;-74
2021/08/30 01:26:43;;;;;;;;;;;12.80;99.90;;;;;;5112685;28;20002;-74
2021/08/30 01:29:17;;;;;;;;;;;12.80;99.90;;;;;;5113105;28;19931;-73
2021/08/30 01:32:02;;;;;;;;;;;12.80;99.90;;;;;;5111660;28;20006;-73
2021/08/30 01:34:28;;;;;;;;;;;12.80;99.90;;;;;;5101877;28;20002;-73
2021/08/30 01:36:54;;;;;;;;;;;12.80;99.90;;;;;;5104328;28;20002;-73
2021/08/30 01:39:20;;;;;;;;;;;12.80;99.90;;;;;;5092203;28;19908;-73
2021/08/30 01:41:46;;;;;;;;;;;12.80;99.90;;;;;;5092294;28;20032;-73
2021/08/30 01:44:12;;;;;;;;;;;12.80;99.90;;;;;;5092348;28;19908;-73
2021/08/30 01:46:38;;;;;;;;;;;12.80;99.90;;;;;;5091863;28;19967;-73
2021/08/30 01:49:04;;;;;;;;;;;12.80;99.90;;;;;;5092379;28;20273;-73
2021/08/30 01:51:30;;;;;;;;;;;12.80;99.90;;;;;;5092194;28;19916;-73
2021/08/30 01:53:57;;;;;;;;;;;12.80;99.90;;;;;;5092151;28;19916;-73
2021/08/30 01:56:24;;;;;;;;;;;12.80;99.90;;;;;;5091880;28;19934;-73
2021/08/30 02:01:35;;;;;;;;;;;12.80;99.90;;;;;;5092136;28;19969;-73
2021/08/30 02:04:01;;;;;;;;;;;12.80;99.90;;;;;;5092090;28;19908;-73
2021/08/30 02:06:26;;;;;;;;;;;12.80;99.90;;;;;;5090849;28;19918;-73
2021/08/30 02:08:54;;;;;;;;;;;12.80;99.90;;;;;;5090049;28;20276;-73
2021/08/30 02:11:25;;;;;;;;;;;12.80;99.90;;;;;;5091379;28;19915;-73
2021/08/30 02:13:51;;;;;;;;;;;12.90;99.90;;;;;;5092003;28;19990;-73
2021/08/30 02:16:16;;;;;;;;;;;12.80;99.90;;;;;;5091564;28;19951;-73
2021/08/30 02:18:54;;;;;;;;;;;12.90;99.90;;;;;;5091741;28;19908;-73
2021/08/30 02:21:28;;;;;;;;;;;12.90;99.90;;;;;;5091724;28;19913;-73
2021/08/30 02:24:12;;;;;;;;;;;12.90;99.90;;;;;;5091821;28;20292;-73
2021/08/30 02:26:46;;;;;;;;;;;12.90;99.90;;;;;;5091376;28;19919;-73
2021/08/30 02:29:15;;;;;;;;;;;12.90;99.90;;;;;;5091602;28;19908;-73
2021/08/30 02:31:45;;;;;;;;;;;12.90;99.90;;;;;;5091604;28;19915;-73
2021/08/30 02:34:10;;;;;;;;;;;12.90;99.90;;;;;;5091587;28;19915;-74
2021/08/30 02:36:36;;;;;;;;;;;12.80;99.90;;;;;;5089718;28;19908;-73
2021/08/30 02:39:02;;;;;;;;;;;12.90;99.90;;;;;;5089561;28;19908;-73
2021/08/30 02:41:28;;;;;;;;;;;12.90;99.90;;;;;;5091182;28;19922;-73
2021/08/30 02:43:54;;;;;;;;;;;12.90;99.90;;;;;;5091411;28;19908;-73
2021/08/30 02:46:20;;;;;;;;;;;12.90;99.90;;;;;;5090929;28;19970;-73
2021/08/30 02:48:46;;;;;;;;;;;12.90;99.90;;;;;;5091383;28;19952;-73
2021/08/30 02:51:12;;;;;;;;;;;12.90;99.90;;;;;;5091310;28;19915;-74
2021/08/30 02:53:37;;;;;;;;;;;12.90;99.90;;;;;;5091514;28;20347;-73
2021/08/30 02:56:03;;;;;;;;;;;12.80;99.90;;;;;;5091480;28;20007;-73
2021/08/30 02:58:29;;;;;;;;;;;12.80;99.90;;;;;;5091348;28;20261;-74
2021/08/30 03:00:55;;;;;;;;;;;12.80;99.90;;;;;;5091227;28;19908;-74
2021/08/30 03:03:21;;;;;;;;;;;12.80;99.90;;;;;;5091077;28;19912;-74
2021/08/30 03:05:47;;;;;;;;;;;12.70;99.90;;;;;;5091040;28;19981;-74
2021/08/30 03:08:13;;;;;;;;;;;12.70;99.90;;;;;;5090629;28;20397;-74
2021/08/30 03:10:39;;;;;;;;;;;12.70;99.90;;;;;;5090304;28;19908;-74
2021/08/30 03:13:05;;;;;;;;;;;12.70;99.90;;;;;;5090993;28;19916;-74
2021/08/30 03:15:32;;;;;;;;;;;12.70;99.90;;;;;;5091121;28;19908;-74
2021/08/30 03:17:58;;;;;;;;;;;12.70;99.90;;;;;;5090521;28;19908;-73
2021/08/30 03:20:25;;;;;;;;;;;12.70;99.90;;;;;;5091128;28;20288;-73
2021/08/30 03:22:51;;;;;;;;;;;12.70;99.90;;;;;;5092596;28;19919;-73
2021/08/30 03:25:17;;;;;;;;;;;12.70;99.90;;;;;;5095122;28;19915;-74
2021/08/30 03:27:46;;;;;;;;;;;12.70;99.90;;;;;;5094719;28;19912;-73
2021/08/30 03:30:13;;;;;;;;;;;12.70;99.90;;;;;;5093723;28;19908;-74
2021/08/30 03:32:40;;;;;;;;;;;12.70;99.90;;;;;;5094905;28;20343;-73
2021/08/30 03:35:05;;;;;;;;;;;12.60;99.90;;;;;;5094976;28;20000;-73
2021/08/30 03:37:31;;;;;;;;;;;12.70;99.90;;;;;;5094397;28;19959;-73
2021/08/30 03:39:57;;;;;;;;;;;12.60;99.90;;;;;;5093170;28;19916;-73
2021/08/30 03:42:24;;;;;;;;;;;12.60;99.90;;;;;;5094928;28;19912;-73
2021/08/30 03:44:50;;;;;;;;;;;12.60;99.90;;;;;;5094785;28;19908;-73
2021/08/30 03:47:16;;;;;;;;;;;12.60;99.90;;;;;;5094153;28;19916;-73
2021/08/30 03:49:42;;;;;;;;;;;12.60;99.90;;;;;;5094645;28;19961;-73
2021/08/30 03:52:08;;;;;;;;;;;12.60;99.90;;;;;;5095959;28;19912;-73
2021/08/30 03:54:34;;;;;;;;;;;12.60;99.90;;;;;;5095951;28;20365;-73
2021/08/30 03:57:00;;;;;;;;;;;12.60;99.90;;;;;;5095389;28;19913;-73
2021/08/30 03:59:28;;;;;;;;;;;12.60;99.90;;;;;;5095892;28;19909;-73
2021/08/30 04:01:54;;;;;;;;;;;12.60;99.90;;;;;;5095136;28;20364;-73
2021/08/30 04:04:22;;;;;;;;;;;12.60;99.90;;;;;;5094367;28;19986;-73
2021/08/30 04:06:48;;;;;;;;;;;12.60;99.90;;;;;;5093955;28;19918;-73
2021/08/30 04:09:18;;;;;;;;;;;12.60;99.90;;;;;;5093613;28;19999;-73
2021/08/30 04:11:44;;;;;;;;;;;12.60;99.90;;;;;;5093966;28;19955;-73
2021/08/30 04:14:11;;;;;;;;;;;12.60;99.90;;;;;;5094206;28;19916;-73
2021/08/30 04:16:36;;;;;;;;;;;12.60;99.90;;;;;;5094024;28;19931;-73
2021/08/30 04:19:02;;;;;;;;;;;12.60;99.90;;;;;;5094085;28;20368;-74
2021/08/30 04:21:27;;;;;;;;;;;12.60;99.90;;;;;;5093855;28;19912;-73
2021/08/30 04:23:53;;;;;;;;;;;12.60;99.90;;;;;;5093891;28;20373;-73
2021/08/30 04:26:18;;;;;;;;;;;12.60;99.90;;;;;;5093553;28;19951;-74
2021/08/30 04:28:44;;;;;;;;;;;12.60;99.90;;;;;;5093782;28;19960;-73
2021/08/30 04:31:09;;;;;;;;;;;12.60;99.90;;;;;;5093336;28;19908;-74
2021/08/30 04:33:35;;;;;;;;;;;12.60;99.90;;;;;;5093352;28;20083;-73
2021/08/30 04:36:00;;;;;;;;;;;12.60;99.90;;;;;;5093349;28;19990;-73
2021/08/30 04:38:26;;;;;;;;;;;12.60;99.90;;;;;;5093254;28;19916;-73
2021/08/30 04:40:51;;;;;;;;;;;12.60;99.90;;;;;;5092771;28;19908;-73
2021/08/30 04:43:17;;;;;;;;;;;12.60;99.90;;;;;;5093640;28;19916;-74
2021/08/30 04:45:42;;;;;;;;;;;12.60;99.90;;;;;;5093347;28;19924;-74
2021/08/30 04:48:08;;;;;;;;;;;12.70;99.90;;;;;;5093127;28;20070;-73
2021/08/30 04:50:33;;;;;;;;;;;12.70;99.90;;;;;;5093435;28;19912;-73
2021/08/30 04:52:59;;;;;;;;;;;12.60;99.90;;;;;;5093244;28;20324;-74
2021/08/30 04:55:24;;;;;;;;;;;12.70;99.90;;;;;;5093286;28;20006;-74
2021/08/30 04:57:50;;;;;;;;;;;12.70;99.90;;;;;;5093072;28;19912;-73
2021/08/30 05:00:15;;;;;;;;;;;12.70;99.90;;;;;;5093187;28;20166;-74
2021/08/30 05:02:41;;;;;;;;;;;12.70;99.90;;;;;;5093138;28;19971;-74
2021/08/30 05:05:06;;;;;;;;;;;12.70;99.90;;;;;;5093224;28;20006;-74
2021/08/30 05:07:32;;;;;;;;;;;12.80;99.90;;;;;;5092576;28;20288;-74
2021/08/30 05:09:57;;;;;;;;;;;12.80;99.90;;;;;;5092354;28;19908;-74
2021/08/30 05:12:26;;;;;;;;;;;12.80;99.90;;;;;;5086184;28;20501;-74
2021/08/30 05:14:52;;;;;;;;;;;12.80;99.90;;;;;;5092709;28;19955;-73
2021/08/30 05:17:18;;;;;;;;;;;12.80;99.90;;;;;;5092502;28;19908;-73
2021/08/30 05:19:43;;;;;;;;;;;12.80;99.90;;;;;;5092826;28;19951;-74
2021/08/30 05:22:10;;;;;;;;;;;12.90;99.90;;;;;;5092480;28;19912;-73
2021/08/30 05:24:36;;;;;;;;;;;12.90;99.90;;;;;;5092848;28;19961;-74
2021/08/30 05:27:01;;;;;;;;;;;12.90;99.90;;;;;;5092325;28;20269;-73
2021/08/30 05:29:27;;;;;;;;;;;12.90;99.90;;;;;;5092570;28;19919;-73
2021/08/30 05:31:52;;;;;;;;;;;12.90;99.90;;;;;;5092672;28;19912;-73
2021/08/30 05:34:18;;;;;;;;;;;12.90;99.90;;;;;;5092637;28;19909;-73
2021/08/30 05:36:43;;;;;;;;;;;12.90;99.90;;;;;;5092094;28;19931;-74
2021/08/30 05:39:09;;;;;;;;;;;12.90;99.90;;;;;;5091039;28;20042;-74
2021/08/30 05:41:34;;;;;;;;;;;12.90;99.90;;;;;;5091961;28;20285;-74
2021/08/30 05:44:00;;;;;;;;;;;13.00;99.90;;;;;;5092346;28;19908;-73
2021/08/30 05:46:25;;;;;;;;;;;13.00;99.90;;;;;;5090980;28;20287;-73
2021/08/30 05:48:51;;;;;;;;;;;13.00;99.90;;;;;;5092303;28;19912;-73
2021/08/30 05:51:16;;;;;;;;;;;13.00;99.90;;;;;;5092067;28;19915;-73
2021/08/30 05:53:42;;;;;;;;;;;12.90;99.90;;;;;;5092142;28;20034;-74
2021/08/30 05:56:08;;;;;;;;;;;12.90;99.90;;;;;;5091871;28;19958;-74
2021/08/30 05:58:36;;;;;;;;;;;12.90;99.90;;;;;;5092351;28;20377;-74
2021/08/30 06:01:05;;;;;;;;;;;12.90;99.90;;;;;;5091486;28;19908;-73
2021/08/30 06:03:30;;;;;;;;;;;12.90;99.90;;;;;;5092065;28;19919;-74
2021/08/30 06:05:56;;;;;;;;;;;12.90;99.90;;;;;;5091987;28;19908;-73
2021/08/30 06:08:21;;;;;;;;;;;13.00;99.90;;;;;;5091655;28;19908;-73
2021/08/30 06:10:47;;;;;;;;;;;12.90;99.90;;;;;;5109379;28;19947;-73
2021/08/30 06:13:13;;;;;;;;;;;13.00;99.90;;;;;;5112214;28;19984;-73
2021/08/30 06:15:38;;;;;;;;;;;13.00;99.90;;;;;;5112167;28;20003;-73
2021/08/30 06:18:04;;;;;;;;;;;13.00;99.90;;;;;;5111804;28;19908;-73
2021/08/30 06:20:29;;;;;;;;;;;13.10;99.90;;;;;;5112066;28;19942;-73
2021/08/30 06:22:55;;;;;;;;;;;13.10;99.90;;;;;;5111893;28;20056;-74
2021/08/30 06:25:21;;;;;;;;;;;13.10;99.90;;;;;;5112088;28;19908;-73
2021/08/30 06:27:46;;;;;;;;;;;13.10;99.90;;;;;;5111600;28;19908;-73
2021/08/30 06:30:11;;;;;;;;;;;13.00;99.90;;;;;;5111965;28;20365;-74
2021/08/30 06:32:37;;;;;;;;;;;13.10;99.90;;;;;;5111816;28;19965;-73
2021/08/30 06:35:03;;;;;;;;;;;13.10;99.90;;;;;;5111799;28;19915;-73
2021/08/30 06:37:28;;;;;;;;;;;13.00;99.90;;;;;;5111575;28;19955;-74
2021/08/30 06:39:54;;;;;;;;;;;13.10;99.90;;;;;;5099156;28;19908;-74
2021/08/30 06:42:19;;;;;;;;;;;13.10;99.90;;;;;;5091201;28;19967;-74
2021/08/30 06:44:45;;;;;;;;;;;13.10;99.90;;;;;;5091470;28;19908;-74
2021/08/30 06:47:11;;;;;;;;;;;13.20;99.90;;;;;;5090996;28;20300;-74
2021/08/30 06:49:36;;;;;;;;;;;13.20;99.90;;;;;;5091349;28;20519;-74
2021/08/30 06:52:02;;;;;;;;;;;13.30;99.90;;;;;;5082312;28;19986;-73
2021/08/30 06:54:27;;;;;;;;;;;13.30;99.90;;;;;;5096112;28;20337;-73
2021/08/30 06:56:53;;;;;;;;;;;13.40;99.90;;;;;;5112653;28;19908;-73
2021/08/30 06:59:19;;;;;;;;;;;13.30;99.90;;;;;;5104883;28;19997;-74
2021/08/30 07:01:44;;;;;;;;;;;13.30;99.90;;;;;;5094529;28;20253;-73
2021/08/30 07:04:10;;;;;;;;;;;13.30;99.90;;;;;;5095182;28;20054;-73
2021/08/30 07:06:36;;;;;;;;;;;13.30;99.90;;;;;;5093463;28;19912;-73
2021/08/30 07:09:02;;;;;;;;;;;13.60;99.90;;;;;;5094700;28;19915;-73
2021/08/30 07:11:31;;;;;;;;;;;13.50;99.90;;;;;;5095137;28;19958;-73
2021/08/30 07:13:57;;;;;;;;;;;13.70;99.90;;;;;;5095159;28;19912;-74
2021/08/30 07:16:23;;;;;;;;;;;13.60;99.90;;;;;;5095058;28;20349;-73
2021/08/30 07:18:48;;;;;;;;;;;13.60;99.90;;;;;;5095992;28;19955;-74
2021/08/30 07:21:14;;;;;;;;;;;13.80;99.90;;;;;;5090040;28;19912;-74
2021/08/30 07:23:39;;;;;;;;;;;13.50;99.90;;;;;;5085054;28;19962;-73
2021/08/30 07:26:05;;;;;;;;;;;13.50;99.90;;;;;;5094891;28;19911;-74
2021/08/30 07:28:30;;;;;;;;;;;13.60;99.90;;;;;;5095082;28;19943;-74
2021/08/30 07:30:56;;;;;;;;;;;13.70;99.90;;;;;;5095019;28;19998;-74
2021/08/30 07:33:21;;;;;;;;;;;13.90;99.90;;;;;;5094884;28;19943;-74
2021/08/30 07:35:47;;;;;;;;;;;13.50;99.90;;;;;;5095023;28;21093;-73
2021/08/30 07:38:12;;;;;;;;;;;13.70;99.90;;;;;;5091643;28;19915;-74
2021/08/30 07:40:38;;;;;;;;;;;13.70;99.90;;;;;;5095934;28;19908;-74
2021/08/30 07:43:03;;;;;;;;;;;14.00;99.90;;;;;;5095198;28;19966;-74
2021/08/30 07:45:29;;;;;;;;;;;14.10;99.90;;;;;;5094664;28;19912;-74
2021/08/30 07:47:54;;;;;;;;;;;13.90;99.90;;;;;;5093971;28;19987;-73
2021/08/30 07:50:21;;;;;;;;;;;13.80;99.90;;;;;;5092607;28;19916;-73
2021/08/30 07:52:47;;;;;;;;;;;13.90;99.90;;;;;;5095268;28;19931;-73
2021/08/30 07:55:13;;;;;;;;;;;13.70;99.90;;;;;;5095348;28;20007;-73
2021/08/30 07:57:38;;;;;;;;;;;13.70;99.90;;;;;;5094317;28;19970;-73
2021/08/30 08:00:04;;;;;;;;;;;13.70;99.90;;;;;;5094504;28;19912;-74
2021/08/30 08:02:30;;;;;;;;;;;13.50;99.90;;;;;;5084306;28;20323;-73
2021/08/30 08:04:55;;;;;;;;;;;13.50;99.90;;;;;;5094132;28;19935;-73
2021/08/30 08:07:21;;;;;;;;;;;13.60;99.90;;;;;;5091607;28;19998;-74
2021/08/30 08:09:46;;;;;;;;;;;13.70;99.90;;;;;;5093307;28;19951;-73
2021/08/30 08:12:12;;;;;;;;;;;13.60;99.90;;;;;;5094245;28;19908;-74
2021/08/30 08:14:37;;;;;;;;;;;13.50;99.90;;;;;;5094220;28;19912;-73
2021/08/30 08:17:03;;;;;;;;;;;13.60;99.90;;;;;;5093793;28;19982;-74
2021/08/30 08:19:28;;;;;;;;;;;13.60;99.90;;;;;;5094133;28;20357;-74
2021/08/30 08:21:55;;;;;;;;;;;13.70;99.90;;;;;;5083924;28;19912;-74
2021/08/30 08:24:23;;;;;;;;;;;13.60;99.90;;;;;;5093814;28;20331;-74
2021/08/30 08:26:49;;;;;;;;;;;13.60;99.90;;;;;;5093994;28;20303;-74
2021/08/30 08:29:15;;;;;;;;;;;13.60;99.90;;;;;;5094252;28;20042;-74
2021/08/30 08:31:40;;;;;;;;;;;13.60;99.90;;;;;;5093864;28;20363;-74
2021/08/30 08:34:06;;;;;;;;;;;13.70;99.90;;;;;;5094257;28;19966;-74
2021/08/30 08:36:32;;;;;;;;;;;13.70;99.90;;;;;;5093091;28;20280;-74
2021/08/30 08:38:58;;;;;;;;;;;13.70;99.90;;;;;;5092884;28;19919;-74
2021/08/30 08:41:23;;;;;;;;;;;13.80;99.90;;;;;;5090248;28;19923;-74
2021/08/30 08:43:54;;;;;;;;;;;13.80;99.90;;;;;;5091017;28;19994;-74
2021/08/30 08:46:19;;;;;;;;;;;13.80;99.90;;;;;;5092840;28;19916;-74
2021/08/30 08:48:45;;;;;;;;;;;13.80;99.90;;;;;;5093597;28;19937;-74
2021/08/30 08:51:10;;;;;;;;;;;13.90;99.90;;;;;;5092109;28;20379;-74
2021/08/30 08:53:36;;;;;;;;;;;13.80;99.90;;;;;;5093340;28;19908;-74
2021/08/30 08:56:02;;;;;;;;;;;13.80;99.90;;;;;;5092972;28;19985;-74
2021/08/30 08:58:27;;;;;;;;;;;13.80;99.90;;;;;;5093414;28;20352;-73
2021/08/30 09:01:00;;;;;;;;;;;13.90;99.90;;;;;;5093032;28;19908;-74
2021/08/30 09:03:25;;;;;;;;;;;14.00;99.90;;;;;;5093139;28;19919;-75
2021/08/30 09:06:01;;;;;;;;;;;13.90;99.90;;;;;;5093380;28;19908;-74
2021/08/30 09:08:30;;;;;;;;;;;13.80;99.90;;;;;;5093115;28;19909;-74
2021/08/30 09:10:56;;;;;;;;;;;14.00;99.90;;;;;;5093003;28;19969;-74
2021/08/30 09:13:26;;;;;;;;;;;13.90;99.90;;;;;;5087598;28;19999;-74
2021/08/30 09:15:52;;;;;;;;;;;13.90;99.90;;;;;;5092845;28;19985;-74
2021/08/30 09:18:17;;;;;;;;;;;14.00;99.90;;;;;;5092777;28;20372;-74
2021/08/30 09:20:44;;;;;;;;;;;14.00;99.90;;;;;;5091922;28;19952;-74
2021/08/30 09:23:11;;;;;;;;;;;14.20;99.90;;;;;;5087363;28;19912;-74
2021/08/30 09:25:36;;;;;;;;;;;14.10;99.90;;;;;;5092704;28;20250;-74
2021/08/30 09:28:02;;;;;;;;;;;14.00;99.90;;;;;;5092143;28;19961;-74
2021/08/30 09:30:29;;;;;;;;;;;14.50;99.90;;;;;;5092739;28;19912;-74
2021/08/30 09:32:54;;;;;;;;;;;15.10;99.90;;;;;;5092575;28;19908;-74
2021/08/30 09:35:20;;;;;;;;;;;14.70;99.90;;;;;;5092912;28;19908;-74
2021/08/30 09:37:46;;;;;;;;;;;15.20;99.90;;;;;;5092230;28;19912;-74
2021/08/30 09:40:13;;;;;;;;;;;15.00;99.90;;;;;;5092497;28;19919;-75
2021/08/30 09:42:40;;;;;;;;;;;15.20;99.90;;;;;;5086356;28;20292;-74
2021/08/30 09:45:10;;;;;;;;;;;15.20;99.90;;;;;;5084248;28;20357;-75
2021/08/30 09:47:36;;;;;;;;;;;15.10;99.90;;;;;;5092293;28;19916;-74
2021/08/30 09:50:01;;;;;;;;;;;14.90;99.90;;;;;;5092585;28;19914;-74
2021/08/30 09:52:28;;;;;;;;;;;15.50;99.90;;;;;;5092658;28;20010;-74
2021/08/30 09:54:53;;;;;;;;;;;15.30;99.90;;;;;;5092358;28;19908;-74
2021/08/30 09:57:19;;;;;;;;;;;15.20;99.90;;;;;;5091790;28;19919;-74
2021/08/30 09:59:45;;;;;;;;;;;15.00;99.90;;;;;;5092305;28;19945;-74
2021/08/30 10:02:12;;;;;;;;;;;14.90;99.90;;;;;;5091014;28;19955;-74
2021/08/30 10:04:39;;;;;;;;;;;14.80;99.90;;;;;;5096381;28;20344;-74
2021/08/30 10:07:05;;;;;;;;;;;15.00;99.90;;;;;;5092180;28;19908;-74
2021/08/30 10:09:31;;;;;;;;;;;15.00;99.90;;;;;;5088405;28;19908;-74
2021/08/30 10:11:57;;;;;;;;;;;15.20;99.90;;;;;;5086820;28;20487;-74
2021/08/30 10:14:23;;;;;;;;;;;15.10;99.90;;;;;;5092126;28;20002;-74
2021/08/30 10:16:50;;;;;;;;;;;15.10;99.90;;;;;;5091806;28;19915;-74
2021/08/30 10:19:29;;;;;;;;;;;14.80;99.90;;;;;;5092003;28;19912;-74
2021/08/30 10:21:55;;;;;;;;;;;14.50;99.90;;;;;;5081627;28;19912;-74
2021/08/30 10:24:20;;;;;;;;;;;14.30;99.90;;;;;;5091508;28;19924;-74
2021/08/30 10:26:46;;;;;;;;;;;14.20;99.90;;;;;;5091797;28;20276;-74
2021/08/30 10:29:12;;;;;;;;;;;14.30;99.90;;;;;;5091731;28;20420;-74
2021/08/30 10:31:45;;;;;;;;;;;14.30;99.90;;;;;;5091166;28;19999;-74
2021/08/30 10:34:20;;;;;;;;;;;14.40;99.90;;;;;;5091503;28;19908;-74
2021/08/30 10:36:46;;;;;;;;;;;14.50;99.90;;;;;;5091082;28;19969;-74
2021/08/30 10:39:12;;;;;;;;;;;14.60;99.90;;;;;;5091406;28;19908;-74
2021/08/30 10:41:39;;;;;;;;;;;14.60;99.90;;;;;;5086037;28;20300;-74
2021/08/30 10:44:13;;;;;;;;;;;14.60;99.90;;;;;;5091254;28;19940;-74
2021/08/30 10:46:39;;;;;;;;;;;14.80;99.90;;;;;;5090994;28;19964;-74
2021/08/30 10:49:09;;;;;;;;;;;15.00;99.90;;;;;;5091350;28;19961;-74
2021/08/30 10:51:37;;;;;;;;;;;15.30;99.90;;;;;;5091120;28;19912;-74
2021/08/30 10:54:06;;;;;;;;;;;15.50;99.90;;;;;;5091174;28;20452;-74
2021/08/30 10:56:32;;;;;;;;;;;15.50;99.90;;;;;;5091080;28;19919;-74
2021/08/30 10:59:04;;;;;;;;;;;15.60;99.90;;;;;;5091277;28;19923;-74
2021/08/30 11:01:29;;;;;;;;;;;15.80;99.90;;;;;;5091094;28;19987;-74
2021/08/30 11:03:55;;;;;;;;;;;16.00;99.90;;;;;;5090893;28;20415;-74
2021/08/30 11:06:21;;;;;;;;;;;16.20;99.90;;;;;;5091018;28;19950;-74
2021/08/30 11:08:46;;;;;;;;;;;16.10;99.90;;;;;;5091171;28;19947;-74
2021/08/30 11:11:23;;;;;;;;;;;16.30;99.90;;;;;;5090325;28;19908;-74
2021/08/30 11:14:02;;;;;;;;;;;16.30;99.90;;;;;;5090269;28;19919;-74
2021/08/30 11:16:27;;;;;;;;;;;16.20;99.90;;;;;;5110980;28;19918;-74
2021/08/30 11:18:55;;;;;;;;;;;16.10;99.90;;;;;;5111485;28;20364;-74
2021/08/30 11:21:39;;;;;;;;;;;15.80;99.90;;;;;;5102251;28;19908;-73
2021/08/30 11:24:06;;;;;;;;;;;15.80;99.90;;;;;;5082487;28;20265;-74
2021/08/30 11:26:34;;;;;;;;;;;15.90;99.90;;;;;;5090696;28;19961;-74
2021/08/30 11:29:01;;;;;;;;;;;15.60;99.90;;;;;;5090910;28;19912;-74
2021/08/30 11:31:28;;;;;;;;;;;15.50;99.90;;;;;;5090648;28;20349;-73
2021/08/30 11:33:54;;;;;;;;;;;15.30;99.90;;;;;;5090975;28;19914;-73
2021/08/30 11:36:20;;;;;;;;;;;15.30;99.90;;;;;;5090803;28;20002;-73
2021/08/30 11:38:52;;;;;;;;;;;15.30;99.90;;;;;;5090976;28;19908;-73
2021/08/30 11:41:19;;;;;;;;;;;15.20;99.90;;;;;;5088066;28;19919;-74
2021/08/30 11:43:45;;;;;;;;;;;15.20;99.90;;;;;;5089156;28;19912;-73
2021/08/30 11:46:11;;;;;;;;;;;15.40;99.90;;;;;;5094344;28;19916;-74
2021/08/30 11:48:37;;;;;;;;;;;15.60;99.90;;;;;;5094871;28;20356;-74
2021/08/30 11:51:03;;;;;;;;;;;15.50;99.90;;;;;;5094492;28;19908;-74
2021/08/30 11:53:28;;;;;;;;;;;15.60;99.90;;;;;;5094516;28;19908;-74
2021/08/30 11:55:54;;;;;;;;;;;16.10;99.90;;;;;;5094733;28;19969;-74
2021/08/30 11:58:28;;;;;;;;;;;16.60;99.90;;;;;;5094055;28;19908;-74
2021/08/30 12:01:03;;;;;;;;;;;17.00;99.90;;;;;;5092790;28;19914;-74
2021/08/30 12:03:39;;;;;;;;;;;17.30;99.90;;;;;;5093949;28;20018;-74
2021/08/30 12:06:12;;;;;;;;;;;17.00;99.90;;;;;;5093927;28;19931;-73
2021/08/30 12:08:46;;;;;;;;;;;16.50;99.90;;;;;;5094310;28;19908;-73
2021/08/30 12:11:12;;;;;;;;;;;16.20;99.90;;;;;;5093616;28;19915;-74
2021/08/30 12:13:45;;;;;;;;;;;16.30;99.90;;;;;;5090466;28;20375;-73
2021/08/30 12:16:17;;;;;;;;;;;16.10;99.90;;;;;;5093755;28;19954;-73
2021/08/30 12:18:47;;;;;;;;;;;16.00;99.90;;;;;;5093931;28;19954;-73
2021/08/30 12:21:13;;;;;;;;;;;15.90;99.90;;;;;;5091958;28;19961;-73
2021/08/30 12:23:38;;;;;;;;;;;16.10;99.90;;;;;;5090024;28;19947;-73
2021/08/30 12:26:04;;;;;;;;;;;16.00;99.90;;;;;;5093625;28;19908;-73
2021/08/30 12:28:29;;;;;;;;;;;16.00;99.90;;;;;;5093913;28;19999;-73
2021/08/30 12:30:55;;;;;;;;;;;16.40;99.90;;;;;;5093921;28;19908;-74
2021/08/30 12:33:28;;;;;;;;;;;16.70;99.90;;;;;;5093618;28;20185;-74
2021/08/30 12:35:54;;;;;;;;;;;16.80;99.90;;;;;;5093703;28;20030;-74
2021/08/30 12:38:21;;;;;;;;;;;17.10;99.90;;;;;;5093506;28;19908;-73
2021/08/30 12:40:55;;;;;;;;;;;17.10;99.90;;;;;;5094008;28;19912;-73
2021/08/30 12:43:20;;;;;;;;;;;17.40;99.90;;;;;;5103236;28;20269;-74
2021/08/30 12:45:46;;;;;;;;;;;17.20;99.90;;;;;;5113638;28;19911;-73
2021/08/30 12:48:13;;;;;;;;;;;16.90;99.90;;;;;;5113517;28;20018;-73
2021/08/30 12:50:39;;;;;;;;;;;17.00;99.90;;;;;;5113735;28;20265;-74
2021/08/30 12:53:05;;;;;;;;;;;16.80;99.90;;;;;;5113834;28;19908;-73
2021/08/30 12:55:31;;;;;;;;;;;16.70;99.90;;;;;;5113506;28;19919;-73
2021/08/30 12:57:56;;;;;;;;;;;16.90;99.90;;;;;;5113519;28;19908;-73
2021/08/30 13:00:22;;;;;;;;;;;16.80;99.90;;;;;;5114014;28;20275;-73
2021/08/30 13:02:50;;;;;;;;;;;16.70;99.90;;;;;;5113353;28;20282;-74
2021/08/30 13:05:16;;;;;;;;;;;16.60;99.90;;;;;;5113624;28;19953;-73
2021/08/30 13:07:43;;;;;;;;;;;15.90;99.90;;;;;;5113203;28;20448;-74
2021/08/30 13:10:09;;;;;;;;;;;15.70;99.90;;;;;;5113469;28;19918;-73
2021/08/30 13:12:34;;;;;;;;;;;14.50;99.90;;;;;;5098857;28;19974;-73
2021/08/30 13:15:00;;;;;;;;;;;14.30;99.90;;;;;;5092680;28;19916;-73
2021/08/30 13:17:25;;;;;;;;;;;14.20;99.90;;;;;;5092650;28;19966;-73
2021/08/30 13:19:51;;;;;;;;;;;14.10;99.90;;;;;;5092869;28;19950;-73
2021/08/30 13:22:17;;;;;;;;;;;14.20;99.90;;;;;;5091790;28;19912;-73
2021/08/30 13:24:42;;;;;;;;;;;14.10;99.90;;;;;;5112900;28;19908;-73
2021/08/30 13:27:07;;;;;;;;;;;14.30;99.90;;;;;;5112725;28;19912;-73
2021/08/30 13:29:33;;;;;;;;;;;14.40;99.90;;;;;;5113017;28;19907;-73
2021/08/30 13:31:59;;;;;;;;;;;14.20;99.90;;;;;;5112876;28;19947;-74
2021/08/30 13:34:24;;;;;;;;;;;14.10;99.90;;;;;;5112920;28;19931;-73
2021/08/30 13:36:50;;;;;;;;;;;14.00;99.90;;;;;;5112800;28;19908;-73
2021/08/30 13:39:15;;;;;;;;;;;14.00;99.90;;;;;;5113221;28;19907;-73
2021/08/30 13:41:41;;;;;;;;;;;14.10;99.90;;;;;;5101808;28;19914;-73
2021/08/30 13:44:07;;;;;;;;;;;14.10;99.90;;;;;;5092116;28;19908;-74
2021/08/30 13:46:32;;;;;;;;;;;14.40;99.90;;;;;;5091700;28;20380;-74
2021/08/30 13:48:58;;;;;;;;;;;14.60;99.90;;;;;;5092271;28;19912;-74
2021/08/30 13:51:23;;;;;;;;;;;14.80;99.90;;;;;;5092208;28;19998;-74
2021/08/30 13:53:49;;;;;;;;;;;15.10;99.90;;;;;;5092300;28;19970;-74
2021/08/30 13:56:14;;;;;;;;;;;15.10;99.90;;;;;;5091843;28;19908;-74
2021/08/30 13:58:40;;;;;;;;;;;14.70;99.90;;;;;;5092107;28;19959;-74
2021/08/30 14:01:05;;;;;;;;;;;15.00;99.90;;;;;;5094071;28;19911;-74
2021/08/30 14:03:31;;;;;;;;;;;15.00;99.90;;;;;;5112038;28;20003;-74
2021/08/30 14:05:56;;;;;;;;;;;15.00;99.90;;;;;;5111660;28;20274;-74
2021/08/30 14:08:22;;;;;;;;;;;15.00;99.90;;;;;;5112235;28;19908;-74
2021/08/30 14:10:47;;;;;;;;;;;15.20;99.90;;;;;;5108639;28;20433;-74
2021/08/30 14:13:13;;;;;;;;;;;15.30;99.90;;;;;;5084443;28;19912;-74
2021/08/30 14:15:39;;;;;;;;;;;15.40;99.90;;;;;;5091455;28;19912;-74